Time;durP1;ratioP1;P1;durP2;ratioP2;P2;SDS_P1;SDS_P2;PMS_P1;PMS_P2;Temp;Humidity;BMP_temperature;BMP_pressure;BME280_temperature;BME280_humidity;BME280_pressure;Samples;Min_cycle;Max_cycle;Signal;HPM_P1;HPM_P2
2024/03/08 00:00:09;;;;;;;20.50;12.18;;;8.00;58.70;9.70;101692.00;;;;5002818;28;20231;-71
2024/03/08 00:02:37;;;;;;;22.10;12.65;;;8.00;58.70;9.70;101687.00;;;;5003282;28;20222;-71
2024/03/08 00:05:05;;;;;;;20.30;12.60;;;8.00;58.70;9.70;101685.00;;;;5005886;28;20582;-71
2024/03/08 00:07:34;;;;;;;19.05;11.93;;;8.00;58.70;9.70;101684.00;;;;5010950;28;20202;-70
2024/03/08 00:10:01;;;;;;;21.52;12.93;;;8.00;59.30;9.70;101679.00;;;;5011340;28;20224;-71
2024/03/08 00:12:28;;;;;;;20.58;12.70;;;8.00;58.70;9.70;101676.00;;;;5010760;28;20211;-71
2024/03/08 00:14:55;;;;;;;18.77;12.48;;;7.90;58.70;9.60;101668.00;;;;5011130;28;20580;-71
2024/03/08 00:17:23;;;;;;;21.85;13.82;;;7.90;58.70;9.60;101659.00;;;;5011364;28;20225;-70
2024/03/08 00:19:50;;;;;;;20.75;13.45;;;7.90;58.70;9.60;101670.00;;;;5011221;28;20199;-70
2024/03/08 00:22:18;;;;;;;23.58;14.75;;;7.90;58.70;9.60;101676.00;;;;5019399;28;20189;-70
2024/03/08 00:24:47;;;;;;;19.85;12.68;;;7.90;58.70;9.50;101666.00;;;;5011184;28;20551;-71
2024/03/08 00:27:15;;;;;;;21.08;12.68;;;7.80;58.60;9.50;101663.00;;;;5010353;28;20196;-71
2024/03/08 00:29:42;;;;;;;17.88;13.15;;;7.80;58.60;9.50;101658.00;;;;5010763;28;20288;-71
2024/03/08 00:32:10;;;;;;;19.45;13.02;;;7.80;58.70;9.50;101659.00;;;;5009786;28;20193;-70
2024/03/08 00:34:38;;;;;;;17.88;12.13;;;7.80;58.70;9.50;101658.00;;;;5011132;28;20568;-71
2024/03/08 00:37:05;;;;;;;21.45;13.25;;;7.80;58.70;9.50;101657.00;;;;5010776;28;20247;-70
2024/03/08 00:39:32;;;;;;;18.63;12.63;;;7.80;58.70;9.40;101649.00;;;;5011477;28;20194;-70
2024/03/08 00:42:01;;;;;;;19.50;13.52;;;7.70;58.70;9.40;101649.00;;;;5006426;28;20219;-70
2024/03/08 00:44:28;;;;;;;23.05;14.32;;;7.70;58.70;9.40;101656.00;;;;5009733;28;20760;-71
2024/03/08 00:46:55;;;;;;;21.15;13.25;;;7.70;58.70;9.40;101643.00;;;;5010960;28;20287;-71
2024/03/08 00:49:22;;;;;;;22.60;13.75;;;7.70;58.80;9.30;101643.00;;;;5010944;28;20296;-70
2024/03/08 00:51:49;;;;;;;22.48;12.80;;;7.60;58.70;9.30;101648.00;;;;5009474;28;20259;-71
2024/03/08 00:54:17;;;;;;;21.15;13.07;;;7.60;58.70;9.30;101631.00;;;;5009730;28;20312;-70
2024/03/08 00:56:45;;;;;;;18.88;12.93;;;7.60;58.70;9.30;101629.00;;;;5014710;28;20231;-70
2024/03/08 00:59:15;;;;;;;20.98;12.98;;;7.60;58.80;9.20;101629.00;;;;5014612;28;20196;-70
2024/03/08 01:01:43;;;;;;;20.63;13.05;;;7.50;58.70;9.30;101618.00;;;;5006453;28;20324;-70
2024/03/08 01:04:11;;;;;;;21.63;13.70;;;7.50;58.70;9.20;101618.00;;;;5013832;28;20197;-70
2024/03/08 01:06:39;;;;;;;20.52;14.18;;;7.50;58.80;9.20;101618.00;;;;5013598;28;20193;-70
2024/03/08 01:09:07;;;;;;;21.70;13.95;;;7.50;58.80;9.20;101604.00;;;;5014159;28;20213;-71
2024/03/08 01:11:35;;;;;;;21.55;14.07;;;7.40;58.70;9.10;101606.00;;;;5013993;28;20193;-70
2024/03/08 01:14:02;;;;;;;21.20;13.65;;;7.40;58.80;9.10;101601.00;;;;5014234;28;20677;-70
2024/03/08 01:16:33;;;;;;;21.48;13.88;;;7.40;58.80;9.10;101608.00;;;;5013949;28;20263;-70
2024/03/08 01:19:00;;;;;;;20.63;13.77;;;7.40;58.90;9.10;101602.00;;;;5013611;28;20189;-70
2024/03/08 01:21:27;;;;;;;17.70;12.57;;;7.40;58.90;9.10;101599.00;;;;5010983;28;20225;-71
2024/03/08 01:23:54;;;;;;;21.95;14.45;;;7.30;58.80;9.00;101590.00;;;;5012388;28;20902;-71
2024/03/08 01:26:21;;;;;;;23.58;14.75;;;7.30;58.80;9.00;101578.00;;;;5014213;28;20193;-70
2024/03/08 01:28:48;;;;;;;21.75;13.90;;;7.30;58.80;9.00;101578.00;;;;5016515;28;20196;-70
2024/03/08 01:31:15;;;;;;;21.95;13.82;;;7.30;58.90;9.00;101585.00;;;;5020749;28;20680;-71
2024/03/08 01:33:44;;;;;;;22.02;14.10;;;7.20;58.90;8.90;101580.00;;;;5013754;28;20580;-71
2024/03/08 01:36:15;;;;;;;22.67;13.32;;;7.20;58.90;8.90;101583.00;;;;5012951;28;20263;-71
2024/03/08 01:38:42;;;;;;;21.17;13.27;;;7.20;58.90;8.90;101582.00;;;;5014118;28;20197;-71
2024/03/08 01:41:09;;;;;;;18.75;13.02;;;7.20;58.90;8.90;101575.00;;;;5011698;28;20204;-70
2024/03/08 01:43:37;;;;;;;22.98;13.02;;;7.20;59.00;8.90;101574.00;;;;5012284;28;20621;-70
2024/03/08 01:46:05;;;;;;;19.52;13.77;;;7.20;59.00;8.80;101571.00;;;;5013596;28;20578;-71
2024/03/08 01:48:33;;;;;;;19.20;14.00;;;7.10;59.00;8.80;101576.00;;;;5013012;28;20193;-71
2024/03/08 01:51:02;;;;;;;23.20;13.63;;;7.10;59.00;8.80;101567.00;;;;5012227;28;20228;-70
2024/03/08 01:53:31;;;;;;;22.48;13.63;;;7.10;58.90;8.70;101567.00;;;;5012881;28;20192;-70
2024/03/08 01:55:59;;;;;;;19.70;13.40;;;7.10;58.90;8.70;101567.00;;;;5012462;28;20283;-70
2024/03/08 01:58:29;;;;;;;21.52;13.30;;;7.10;58.90;8.70;101567.00;;;;5010157;28;20284;-71
2024/03/08 02:00:58;;;;;;;22.30;13.35;;;7.00;58.90;8.70;101559.00;;;;5008187;28;20749;-70
2024/03/08 02:03:25;;;;;;;20.42;13.10;;;7.00;59.00;8.70;101555.00;;;;5013494;28;20205;-70
2024/03/08 02:05:54;;;;;;;21.75;14.48;;;7.00;59.00;8.70;101552.00;;;;5012672;28;20197;-70
2024/03/08 02:08:23;;;;;;;20.35;13.25;;;6.90;58.90;8.60;101558.00;;;;5012217;28;20636;-70
2024/03/08 02:10:50;;;;;;;21.20;14.15;;;6.90;58.90;8.60;101544.00;;;;5012700;28;20706;-70
2024/03/08 02:13:18;;;;;;;21.13;14.23;;;6.90;58.90;8.60;101548.00;;;;5011560;28;20247;-70
2024/03/08 02:15:57;;;;;;;20.45;14.18;;;6.90;58.90;8.50;101538.00;;;;5012449;28;20193;-70
2024/03/08 02:18:25;;;;;;;19.98;13.60;;;6.90;59.00;8.60;101540.00;;;;5006033;28;20675;-71
2024/03/08 02:20:54;;;;;;;23.58;14.55;;;6.80;58.90;8.50;101537.00;;;;5009389;28;20295;-70
2024/03/08 02:23:21;;;;;;;21.02;13.50;;;6.80;58.90;8.50;101540.00;;;;5010871;28;20220;-70
2024/03/08 02:25:49;;;;;;;21.83;14.13;;;6.80;58.90;8.50;101526.00;;;;5012726;28;20669;-70
2024/03/08 02:28:18;;;;;;;22.17;15.43;;;6.80;58.90;8.40;101529.00;;;;5012422;28;20201;-70
2024/03/08 02:30:46;;;;;;;23.55;15.07;;;6.70;58.90;8.40;101518.00;;;;5006505;28;20702;-70
2024/03/08 02:33:17;;;;;;;22.45;14.70;;;6.70;58.90;8.40;101524.00;;;;5003722;28;20209;-70
2024/03/08 02:35:45;;;;;;;21.17;13.75;;;6.70;59.00;8.40;101523.00;;;;5012705;28;20200;-70
2024/03/08 02:38:16;;;;;;;20.35;13.95;;;6.70;58.90;8.40;101518.00;;;;5021434;28;20267;-70
2024/03/08 02:40:43;;;;;;;22.75;13.95;;;6.70;58.90;8.40;101514.00;;;;5013210;28;20666;-70
2024/03/08 02:43:11;;;;;;;22.25;15.45;;;6.60;58.90;8.30;101507.00;;;;5002544;28;20200;-70
2024/03/08 02:45:38;;;;;;;19.63;13.80;;;6.60;58.90;8.30;101497.00;;;;5012364;28;20288;-71
2024/03/08 02:48:07;;;;;;;20.10;15.20;;;6.60;59.00;8.30;101501.00;;;;5011326;28;20220;-70
2024/03/08 02:50:34;;;;;;;24.80;13.95;;;6.60;58.90;8.30;101496.00;;;;5010593;28;20197;-70
2024/03/08 02:53:01;;;;;;;22.23;13.95;;;6.60;58.90;8.30;101503.00;;;;5011048;28;20201;-71
2024/03/08 02:55:30;;;;;;;22.67;14.00;;;6.50;58.90;8.20;101498.00;;;;5019343;28;20208;-71
2024/03/08 02:57:59;;;;;;;21.65;14.25;;;6.50;59.00;8.20;101497.00;;;;5011929;28;20227;-70
2024/03/08 03:00:26;;;;;;;22.05;14.23;;;6.50;59.00;8.20;101492.00;;;;5011004;28;20223;-71
2024/03/08 03:02:53;;;;;;;20.30;13.68;;;6.50;58.90;8.20;101494.00;;;;5010370;28;20205;-70
2024/03/08 03:05:21;;;;;;;20.48;14.35;;;6.50;58.90;8.20;101493.00;;;;5005672;28;20224;-71
2024/03/08 03:07:48;;;;;;;21.27;13.57;;;6.50;59.00;8.20;101482.00;;;;5011781;28;20201;-71
2024/03/08 03:10:17;;;;;;;22.05;15.55;;;6.40;58.90;8.20;101481.00;;;;5012388;28;20189;-71
2024/03/08 03:12:48;;;;;;;21.52;14.80;;;6.40;59.50;8.10;101476.00;;;;5011052;28;20208;-70
2024/03/08 03:15:17;;;;;;;20.35;14.02;;;6.40;58.90;8.10;101473.00;;;;5007539;28;20205;-70
2024/03/08 03:17:48;;;;;;;22.45;15.35;;;6.40;58.90;8.10;101477.00;;;;5011210;28;20670;-71
2024/03/08 03:20:22;;;;;;;21.85;14.07;;;6.40;58.90;8.10;101472.00;;;;5009802;28;20208;-71
2024/03/08 03:22:52;;;;;;;21.00;14.45;;;6.40;58.90;8.10;101479.00;;;;5006539;28;20568;-71
2024/03/08 03:25:24;;;;;;;21.23;14.90;;;6.30;58.90;8.10;101471.00;;;;5011663;28;20196;-71
2024/03/08 03:27:56;;;;;;;21.90;14.65;;;6.30;58.90;8.00;101464.00;;;;5011921;28;20670;-70
2024/03/08 03:30:26;;;;;;;20.02;14.15;;;6.30;58.90;8.00;101463.00;;;;5010144;28;20288;-70
2024/03/08 03:32:54;;;;;;;21.52;15.43;;;6.30;58.90;8.00;101468.00;;;;5010797;28;20193;-70
2024/03/08 03:35:22;;;;;;;19.98;14.73;;;6.30;58.90;8.00;101471.00;;;;5009216;28;20589;-70
2024/03/08 03:38:01;;;;;;;20.45;14.60;;;6.30;59.00;8.00;101461.00;;;;5007809;28;20248;-70
2024/03/08 03:40:29;;;;;;;20.85;14.45;;;6.20;58.90;8.00;101459.00;;;;5011263;28;20197;-70
2024/03/08 03:42:57;;;;;;;22.35;15.15;;;6.20;58.90;8.00;101446.00;;;;5012123;28;20631;-70
2024/03/08 03:45:25;;;;;;;21.35;14.75;;;6.20;58.80;7.90;101455.00;;;;5011563;28;20753;-70
2024/03/08 03:47:52;;;;;;;20.10;13.80;;;6.20;58.90;7.90;101453.00;;;;5011863;28;20200;-70
2024/03/08 03:50:23;;;;;;;26.10;15.75;;;6.20;58.80;7.90;101457.00;;;;5011319;28;20654;-70
2024/03/08 03:52:50;;;;;;;23.90;15.25;;;6.20;58.80;7.90;101448.00;;;;5010930;28;20255;-70
2024/03/08 03:55:17;;;;;;;24.52;15.38;;;6.20;58.90;7.90;101449.00;;;;4998906;28;20198;-70
2024/03/08 03:57:45;;;;;;;21.48;14.90;;;6.10;58.90;7.90;101451.00;;;;5008079;28;20228;-70
2024/03/08 04:00:14;;;;;;;20.90;14.65;;;6.10;58.90;7.90;101443.00;;;;5011491;28;20292;-70
2024/03/08 04:02:42;;;;;;;20.15;14.85;;;6.10;58.80;7.90;101456.00;;;;5003769;28;20819;-70
2024/03/08 04:05:11;;;;;;;21.90;15.35;;;6.10;58.90;7.80;101448.00;;;;5007369;28;20205;-70
2024/03/08 04:07:39;;;;;;;20.02;14.48;;;6.10;58.90;7.80;101447.00;;;;5011829;28;20193;-70
2024/03/08 04:10:11;;;;;;;20.30;14.63;;;6.10;58.90;7.80;101439.00;;;;5011623;28;20215;-70
2024/03/08 04:12:38;;;;;;;21.35;14.90;;;6.00;58.90;7.80;101439.00;;;;5011234;28;20205;-70
2024/03/08 04:15:07;;;;;;;21.92;15.63;;;6.00;58.80;7.80;101437.00;;;;5010598;28;20227;-70
2024/03/08 04:17:37;;;;;;;20.35;15.20;;;6.00;58.80;7.80;101432.00;;;;5011807;28;20220;-70
2024/03/08 04:20:08;;;;;;;21.70;14.80;;;6.00;58.90;7.80;101422.00;;;;5011900;28;20201;-70
2024/03/08 04:22:35;;;;;;;22.05;15.05;;;6.00;58.90;7.80;101433.00;;;;5003010;28;20217;-70
2024/03/08 04:25:03;;;;;;;22.90;14.68;;;6.00;58.90;7.80;101428.00;;;;5012202;28;20678;-70
2024/03/08 04:27:30;;;;;;;20.60;14.02;;;6.00;58.90;7.80;101435.00;;;;5009367;28;20202;-70
2024/03/08 04:29:57;;;;;;;21.85;15.60;;;6.00;58.90;7.70;101429.00;;;;5001128;28;20205;-69
2024/03/08 04:32:24;;;;;;;19.05;15.13;;;6.00;58.90;7.80;101432.00;;;;5007483;28;20296;-70
2024/03/08 04:34:52;;;;;;;20.83;15.30;;;6.00;58.90;7.70;101428.00;;;;5015115;28;20292;-70
2024/03/08 04:37:21;;;;;;;20.67;14.65;;;6.00;58.90;7.70;101425.00;;;;5014354;28;20591;-70
2024/03/08 04:39:49;;;;;;;22.17;15.20;;;5.90;58.80;7.70;101432.00;;;;5014256;28;20200;-70
2024/03/08 04:42:17;;;;;;;21.85;15.25;;;6.00;58.80;7.70;101425.00;;;;5008191;28;20228;-70
2024/03/08 04:44:45;;;;;;;21.55;15.60;;;5.90;58.80;7.70;101420.00;;;;5014264;28;20274;-70
2024/03/08 04:47:12;;;;;;;20.50;14.50;;;5.90;58.80;7.70;101422.00;;;;5014185;28;20207;-70
2024/03/08 04:49:39;;;;;;;21.45;14.13;;;5.90;58.80;7.70;101414.00;;;;5002696;28;20204;-70
2024/03/08 04:52:08;;;;;;;20.25;15.10;;;5.90;58.80;7.70;101405.00;;;;5014633;28;20663;-70
2024/03/08 04:54:35;;;;;;;19.83;14.88;;;5.90;58.80;7.70;101419.00;;;;5020550;28;20197;-71
2024/03/08 04:57:02;;;;;;;21.92;15.05;;;5.90;58.80;7.70;101408.00;;;;5014388;28;20203;-70
2024/03/08 04:59:29;;;;;;;23.48;16.45;;;5.90;58.80;7.70;101401.00;;;;5011805;28;20280;-70
2024/03/08 05:01:57;;;;;;;25.23;17.48;;;5.90;58.80;7.70;101403.00;;;;5013782;28;20272;-70
2024/03/08 05:04:24;;;;;;;21.80;15.02;;;5.90;58.80;7.70;101413.00;;;;5014402;28;20196;-70
2024/03/08 05:06:51;;;;;;;22.05;15.27;;;5.90;58.80;7.70;101401.00;;;;5010620;28;20220;-70
2024/03/08 05:09:19;;;;;;;20.83;15.35;;;5.90;58.80;7.60;101408.00;;;;5012858;28;20216;-70
2024/03/08 05:11:47;;;;;;;22.38;15.63;;;5.90;59.30;7.70;101408.00;;;;5016213;28;20218;-70
2024/03/08 05:14:16;;;;;;;21.50;16.45;;;5.90;58.80;7.70;101404.00;;;;5014102;28;20203;-70
2024/03/08 05:16:48;;;;;;;22.75;15.38;;;5.90;58.80;7.60;101399.00;;;;5012302;28;20272;-70
2024/03/08 05:19:17;;;;;;;22.92;16.00;;;5.90;58.80;7.60;101397.00;;;;5014677;28;20208;-70
2024/03/08 05:21:44;;;;;;;20.33;14.95;;;5.90;58.80;7.60;101394.00;;;;5013804;28;20212;-70
2024/03/08 05:24:11;;;;;;;25.10;16.33;;;5.90;58.80;7.60;101398.00;;;;5012448;28;20205;-70
2024/03/08 05:26:40;;;;;;;22.45;16.15;;;5.90;58.80;7.60;101396.00;;;;5014422;28;20292;-70
2024/03/08 05:29:08;;;;;;;23.50;16.40;;;5.80;58.70;7.60;101396.00;;;;5003900;28;20654;-70
2024/03/08 05:31:46;;;;;;;22.88;15.30;;;5.80;58.70;7.60;101393.00;;;;5013824;28;20202;-70
2024/03/08 05:34:14;;;;;;;21.50;15.57;;;5.80;58.70;7.60;101394.00;;;;5013103;28;20240;-71
2024/03/08 05:36:41;;;;;;;21.77;16.67;;;5.80;58.70;7.60;101392.00;;;;5012765;28;20721;-70
2024/03/08 05:39:08;;;;;;;23.08;16.70;;;5.80;59.20;7.60;101398.00;;;;5014116;28;20225;-70
2024/03/08 05:41:35;;;;;;;21.75;15.57;;;5.80;58.70;7.60;101390.00;;;;5012012;28;20207;-70
2024/03/08 05:44:04;;;;;;;23.52;16.65;;;5.80;58.60;7.60;101389.00;;;;5012091;28;20227;-70
2024/03/08 05:46:31;;;;;;;21.63;15.13;;;5.80;58.60;7.50;101394.00;;;;5013496;28;20243;-69
2024/03/08 05:48:58;;;;;;;21.17;14.85;;;5.80;58.60;7.60;101391.00;;;;5013536;28;20197;-70
2024/03/08 05:51:27;;;;;;;22.23;16.02;;;5.80;58.60;7.60;101381.00;;;;5010099;28;20197;-70
2024/03/08 05:53:56;;;;;;;20.88;15.93;;;5.80;58.70;7.60;101384.00;;;;5012239;28;20197;-71
2024/03/08 05:56:24;;;;;;;20.85;15.27;;;5.80;58.70;7.60;101380.00;;;;5012962;28;20196;-70
2024/03/08 05:58:51;;;;;;;24.48;16.80;;;5.70;58.60;7.50;101380.00;;;;5004450;28;20224;-70
2024/03/08 06:01:19;;;;;;;23.98;16.67;;;5.70;58.60;7.50;101363.00;;;;5007720;28;20212;-70
2024/03/08 06:03:48;;;;;;;24.20;16.25;;;5.70;58.70;7.50;101364.00;;;;5001918;28;20219;-70
2024/03/08 06:06:17;;;;;;;21.25;15.13;;;5.70;58.60;7.50;101361.00;;;;4995084;28;20202;-70
2024/03/08 06:08:44;;;;;;;23.75;16.58;;;5.70;58.70;7.50;101365.00;;;;5012093;28;20216;-70
2024/03/08 06:11:12;;;;;;;25.85;16.13;;;5.70;58.70;7.50;101362.00;;;;5011273;28;20698;-70
2024/03/08 06:13:39;;;;;;;23.13;16.48;;;5.70;58.70;7.50;101360.00;;;;5013776;28;20224;-70
2024/03/08 06:16:08;;;;;;;20.58;15.10;;;5.70;58.70;7.50;101355.00;;;;5013072;28;20205;-70
2024/03/08 06:18:37;;;;;;;21.00;15.35;;;5.70;58.70;7.50;101352.00;;;;5023422;28;20569;-70
2024/03/08 06:21:05;;;;;;;25.02;16.55;;;5.70;58.80;7.50;101358.00;;;;5019803;28;20292;-70
2024/03/08 06:23:32;;;;;;;20.23;14.90;;;5.70;58.80;7.50;101362.00;;;;5011066;28;20200;-70
2024/03/08 06:26:00;;;;;;;25.45;15.05;;;5.70;58.70;7.40;101351.00;;;;5013046;28;20671;-70
2024/03/08 06:28:27;;;;;;;21.17;15.38;;;5.70;58.80;7.50;101355.00;;;;5007614;28;20202;-70
2024/03/08 06:30:55;;;;;;;22.38;15.55;;;5.70;58.80;7.50;101351.00;;;;5005208;28;20205;-70
2024/03/08 06:33:26;;;;;;;26.45;16.85;;;5.70;58.80;7.50;101359.00;;;;5003125;28;20647;-70
2024/03/08 06:35:57;;;;;;;21.85;16.35;;;5.70;58.80;7.50;101351.00;;;;5022246;28;20207;-70
2024/03/08 06:38:24;;;;;;;21.02;15.55;;;5.70;58.80;7.50;101360.00;;;;5011074;28;20308;-70
2024/03/08 06:40:51;;;;;;;22.95;16.13;;;5.70;58.80;7.50;101355.00;;;;5017343;28;20199;-70
2024/03/08 06:43:19;;;;;;;24.05;16.08;;;5.70;58.90;7.50;101349.00;;;;5011750;28;20237;-70
2024/03/08 06:45:48;;;;;;;22.55;15.43;;;5.70;58.90;7.50;101346.00;;;;5007632;28;20189;-70
2024/03/08 06:48:16;;;;;;;21.88;15.70;;;5.70;58.90;7.50;101352.00;;;;5011905;28;20209;-70
2024/03/08 06:50:44;;;;;;;24.80;16.77;;;5.70;58.90;7.60;101346.00;;;;5010662;28;20204;-70
2024/03/08 06:53:13;;;;;;;20.48;15.55;;;5.70;58.90;7.50;101346.00;;;;5011259;28;20201;-70
2024/03/08 06:55:40;;;;;;;21.30;15.40;;;5.70;58.90;7.60;101342.00;;;;5010564;28;20734;-70
2024/03/08 06:58:07;;;;;;;22.55;16.30;;;5.70;58.90;7.60;101343.00;;;;5012360;28;20216;-70
2024/03/08 07:00:36;;;;;;;25.33;16.98;;;5.80;58.90;7.60;101349.00;;;;5011884;28;20331;-70
2024/03/08 07:03:03;;;;;;;24.80;17.50;;;5.80;58.90;7.70;101350.00;;;;5009142;28;20200;-70
2024/03/08 07:05:32;;;;;;;24.60;16.05;;;5.80;58.90;7.70;101343.00;;;;5010551;28;20773;-70
2024/03/08 07:07:59;;;;;;;25.83;16.70;;;5.90;59.00;7.80;101336.00;;;;5011342;28;20735;-69
2024/03/08 07:10:28;;;;;;;23.10;17.15;;;5.90;58.90;7.80;101338.00;;;;5011672;28;20205;-70
2024/03/08 07:13:02;;;;;;;22.48;15.98;;;5.90;58.90;7.80;101339.00;;;;5011911;28;20211;-70
2024/03/08 07:15:29;;;;;;;23.52;16.77;;;6.00;58.90;7.90;101341.00;;;;5005255;28;20201;-71
2024/03/08 07:17:57;;;;;;;26.02;17.55;;;6.00;58.90;7.90;101341.00;;;;5011991;28;20308;-70
2024/03/08 07:20:24;;;;;;;22.17;16.58;;;6.00;58.90;7.90;101340.00;;;;5012700;28;20615;-71
2024/03/08 07:22:51;;;;;;;23.05;16.55;;;6.10;58.90;8.00;101331.00;;;;5011920;28;20193;-71
2024/03/08 07:25:22;;;;;;;22.42;16.42;;;6.10;58.90;8.00;101326.00;;;;5011126;28;20204;-70
2024/03/08 07:27:52;;;;;;;23.33;16.73;;;6.10;58.80;8.00;101327.00;;;;5012102;28;20197;-71
2024/03/08 07:33:06;;;;;;;22.13;16.30;;;6.20;58.80;8.20;101318.00;;;;5011653;28;20204;-70
2024/03/08 07:35:36;;;;;;;24.23;17.35;;;6.30;58.80;8.20;101316.00;;;;5012366;28;20603;-70
2024/03/08 07:38:05;;;;;;;22.15;16.15;;;6.30;58.80;8.20;101321.00;;;;5008691;28;20656;-71
2024/03/08 07:40:33;;;;;;;27.85;17.55;;;6.40;58.80;8.30;101313.00;;;;5012813;28;20192;-70
2024/03/08 07:43:02;;;;;;;22.88;16.77;;;6.40;58.70;8.30;101314.00;;;;5013028;28;20216;-71
2024/03/08 07:45:30;;;;;;;24.90;16.98;;;6.50;58.70;8.40;101318.00;;;;5010432;28;20225;-71
2024/03/08 07:47:57;;;;;;;23.73;17.17;;;6.50;58.60;8.40;101314.00;;;;5011805;28;20221;-71
2024/03/08 07:50:27;;;;;;;22.02;16.20;;;6.60;58.60;8.50;101306.00;;;;5012051;28;20211;-71
2024/03/08 07:52:54;;;;;;;21.30;16.45;;;6.60;58.60;8.60;101304.00;;;;5011690;28;20291;-71
2024/03/08 07:55:24;;;;;;;22.05;16.15;;;6.70;58.60;8.60;101306.00;;;;5011845;28;20235;-71
2024/03/08 07:57:51;;;;;;;23.38;17.10;;;6.70;58.50;8.70;101297.00;;;;5011798;28;20567;-70
2024/03/08 08:00:19;;;;;;;23.70;16.80;;;6.80;58.50;8.70;101303.00;;;;5020563;28;20577;-70
2024/03/08 08:02:49;;;;;;;24.73;16.85;;;6.80;58.40;8.80;101301.00;;;;5016499;28;20570;-70
2024/03/08 08:05:18;;;;;;;21.30;16.23;;;6.90;58.40;8.80;101298.00;;;;5016953;28;20255;-71
2024/03/08 08:07:46;;;;;;;20.92;15.32;;;6.90;58.30;8.90;101298.00;;;;5018111;28;20200;-71
2024/03/08 08:10:18;;;;;;;21.40;16.35;;;7.00;58.30;8.90;101292.00;;;;5018287;28;20220;-71
2024/03/08 08:12:46;;;;;;;23.50;15.07;;;7.10;58.30;9.00;101299.00;;;;5016935;28;20211;-71
2024/03/08 08:15:14;;;;;;;22.45;15.52;;;7.10;58.30;9.10;101298.00;;;;5018338;28;20193;-71
2024/03/08 08:17:43;;;;;;;20.15;15.18;;;7.20;58.20;9.10;101290.00;;;;5020760;28;20196;-71
2024/03/08 08:20:13;;;;;;;23.77;16.77;;;7.20;58.20;9.20;101288.00;;;;5018061;28;20236;-72
2024/03/08 08:22:40;;;;;;;22.23;15.88;;;7.30;58.20;9.20;101286.00;;;;5017590;28;20573;-72
2024/03/08 08:25:08;;;;;;;21.30;15.02;;;7.40;58.10;9.30;101275.00;;;;5017445;28;20281;-72
2024/03/08 08:27:36;;;;;;;21.80;16.45;;;7.40;58.10;9.40;101274.00;;;;5017962;28;20276;-72
2024/03/08 08:30:08;;;;;;;22.40;16.55;;;7.50;58.10;9.40;101278.00;;;;5018501;28;20212;-72
2024/03/08 08:32:36;;;;;;;21.40;15.02;;;7.60;58.10;9.50;101275.00;;;;5018117;28;20201;-71
2024/03/08 08:35:07;;;;;;;20.23;15.43;;;7.60;58.00;9.50;101270.00;;;;5018430;28;20205;-71
2024/03/08 08:37:35;;;;;;;22.00;15.48;;;7.70;57.90;9.60;101266.00;;;;5018209;28;20232;-72
2024/03/08 08:40:05;;;;;;;20.67;15.00;;;7.80;57.90;9.70;101258.00;;;;5018357;28;20229;-72
2024/03/08 08:42:33;;;;;;;20.60;14.63;;;7.80;57.70;9.80;101262.00;;;;5017807;28;20193;-72
2024/03/08 08:45:00;;;;;;;18.92;14.70;;;7.90;57.80;9.90;101256.00;;;;5017532;28;20228;-72
2024/03/08 08:47:27;;;;;;;21.67;15.15;;;8.00;57.80;9.90;101251.00;;;;5017889;28;20283;-71
2024/03/08 08:49:54;;;;;;;21.48;15.32;;;8.00;57.70;10.00;101252.00;;;;5018064;28;20212;-72
2024/03/08 08:52:23;;;;;;;20.83;15.20;;;8.20;58.00;10.10;101251.00;;;;5021563;28;20200;-71
2024/03/08 08:54:50;;;;;;;20.52;14.73;;;8.20;57.60;10.20;101243.00;;;;5017684;28;20197;-72
2024/03/08 08:57:18;;;;;;;20.55;14.45;;;8.30;57.50;10.20;101247.00;;;;5017992;28;20197;-72
2024/03/08 08:59:45;;;;;;;24.17;15.15;;;8.40;57.50;10.30;101239.00;;;;5017684;28;20223;-71
2024/03/08 09:02:12;;;;;;;21.75;14.65;;;8.40;57.40;10.40;101236.00;;;;5017797;28;20220;-71
2024/03/08 09:04:39;;;;;;;23.00;16.55;;;8.50;57.30;10.40;101228.00;;;;5017350;28;20236;-71
2024/03/08 09:07:07;;;;;;;21.23;15.25;;;8.60;57.30;10.50;101226.00;;;;5017769;28;20284;-72
2024/03/08 09:09:36;;;;;;;20.10;14.25;;;8.70;57.20;10.60;101227.00;;;;5035103;28;20216;-72
2024/03/08 09:12:03;;;;;;;20.92;14.98;;;8.80;57.20;10.70;101228.00;;;;5024719;28;20271;-72
2024/03/08 09:14:30;;;;;;;22.02;14.75;;;8.80;57.00;10.70;101221.00;;;;5014653;28;20200;-72
2024/03/08 09:16:57;;;;;;;20.98;14.35;;;8.90;56.90;10.80;101225.00;;;;5014809;28;20288;-72
2024/03/08 09:19:25;;;;;;;21.00;13.98;;;9.00;57.10;10.90;101206.00;;;;5013976;28;20239;-72
2024/03/08 09:21:52;;;;;;;19.50;14.43;;;9.10;57.10;11.00;101214.00;;;;5013735;28;20197;-72
2024/03/08 09:24:20;;;;;;;20.30;13.55;;;9.20;57.20;11.10;101210.00;;;;5013707;28;20207;-71
2024/03/08 09:26:48;;;;;;;17.80;13.30;;;9.30;57.20;11.20;101208.00;;;;5026761;28;20576;-71
2024/03/08 09:29:16;;;;;;;20.13;14.27;;;9.30;57.00;11.30;101207.00;;;;5014336;28;20742;-72
2024/03/08 09:31:43;;;;;;;20.25;14.80;;;9.50;56.90;11.40;101202.00;;;;5014295;28;20620;-71
2024/03/08 09:34:10;;;;;;;20.00;14.65;;;9.60;56.80;11.50;101200.00;;;;5014262;28;20232;-72
2024/03/08 09:36:37;;;;;;;22.13;14.43;;;9.70;56.60;11.60;101192.00;;;;5014017;28;20677;-72
2024/03/08 09:39:07;;;;;;;20.55;13.75;;;9.70;56.50;11.70;101189.00;;;;5013757;28;20220;-72
2024/03/08 09:41:34;;;;;;;18.35;13.00;;;9.80;56.50;11.80;101187.00;;;;5014711;28;20196;-72
2024/03/08 09:44:05;;;;;;;16.30;12.65;;;9.90;56.40;11.80;101186.00;;;;5013681;28;20225;-71
2024/03/08 09:46:32;;;;;;;16.15;11.57;;;10.00;56.30;12.00;101178.00;;;;5013847;28;20225;-72
2024/03/08 09:49:01;;;;;;;17.73;12.40;;;10.20;56.30;12.10;101182.00;;;;5014025;28;20291;-72
2024/03/08 09:51:30;;;;;;;19.30;13.85;;;10.30;56.30;12.10;101166.00;;;;5013716;28;20660;-71
2024/03/08 09:53:58;;;;;;;18.00;13.30;;;10.40;55.80;12.30;101173.00;;;;5013293;28;20244;-72
2024/03/08 09:56:28;;;;;;;17.23;11.98;;;10.40;55.80;12.40;101164.00;;;;5013964;28;20544;-73
2024/03/08 09:59:19;;;;;;;19.95;13.70;;;10.60;56.00;12.50;101167.00;;;;5014210;28;20320;-72
2024/03/08 10:01:47;;;;;;;16.45;12.35;;;10.70;55.70;12.60;101173.00;;;;5013735;28;20196;-72
2024/03/08 10:04:14;;;;;;;18.10;13.35;;;10.80;55.50;12.60;101155.00;;;;5013439;28;20201;-71
2024/03/08 10:06:41;;;;;;;16.90;12.05;;;10.90;55.20;12.70;101149.00;;;;5013757;28;20201;-72
2024/03/08 10:09:10;;;;;;;16.80;12.02;;;11.00;55.30;12.80;101152.00;;;;5013191;28;20221;-72
2024/03/08 10:11:37;;;;;;;17.35;12.88;;;11.10;55.10;12.90;101142.00;;;;5013900;28;20582;-72
2024/03/08 10:14:06;;;;;;;16.55;12.52;;;11.10;54.90;13.00;101145.00;;;;5013498;28;20204;-72
2024/03/08 10:16:35;;;;;;;18.33;13.80;;;11.20;54.90;13.10;101127.00;;;;5022757;28;20208;-71
2024/03/08 10:19:05;;;;;;;18.30;13.32;;;11.30;54.70;13.20;101123.00;;;;5017274;28;20311;-72
2024/03/08 10:21:33;;;;;;;18.10;13.68;;;11.40;54.80;13.30;101123.00;;;;5013564;28;20667;-72
2024/03/08 10:24:04;;;;;;;19.83;13.93;;;11.60;54.80;13.40;101113.00;;;;5012625;28;20200;-72
2024/03/08 10:26:31;;;;;;;18.65;12.50;;;11.60;54.80;13.50;101122.00;;;;5013518;28;20212;-71
2024/03/08 10:28:58;;;;;;;18.23;13.90;;;11.70;54.60;13.60;101109.00;;;;5013440;28;20279;-72
2024/03/08 10:31:26;;;;;;;17.20;13.10;;;11.80;54.50;13.60;101108.00;;;;5012493;28;20303;-72
2024/03/08 10:33:54;;;;;;;18.65;13.57;;;11.90;54.30;13.70;101110.00;;;;5025559;28;20196;-72
2024/03/08 10:36:22;;;;;;;20.13;14.50;;;12.00;53.80;13.80;101093.00;;;;5032958;28;20200;-71
2024/03/08 10:38:53;;;;;;;19.25;13.80;;;12.10;53.90;13.80;101099.00;;;;5018871;28;20189;-72
2024/03/08 10:41:25;;;;;;;15.35;12.05;;;12.10;53.50;13.90;101095.00;;;;5012722;28;20204;-72
2024/03/08 10:44:15;;;;;;;16.33;12.98;;;12.30;54.00;13.90;101089.00;;;;5012350;28;20231;-72
2024/03/08 10:47:01;;;;;;;16.13;12.27;;;12.30;53.50;14.00;101077.00;;;;5012582;28;20193;-72
2024/03/08 10:49:34;;;;;;;17.98;12.90;;;12.40;53.40;14.20;101085.00;;;;5012858;28;20189;-72
2024/03/08 10:52:05;;;;;;;16.55;13.02;;;12.50;53.10;14.20;101083.00;;;;5032884;28;20289;-73